Time;durP1;ratioP1;P1;durP2;ratioP2;P2;SDS_P1;SDS_P2;PMS_P1;PMS_P2;Temp;Humidity;BMP_temperature;BMP_pressure;BME280_temperature;BME280_humidity;BME280_pressure;Samples;Min_cycle;Max_cycle;Signal;HPM_P1;HPM_P2
2022/03/18 00:01:27;;;;;;;11.60;3.70;;;;;;;14.11;nan;101777.91;4897323;29;20461;-88
2022/03/18 00:03:55;;;;;;;9.83;2.50;;;;;;;14.23;nan;101786.53;4881265;29;20453;-88
2022/03/18 00:06:22;;;;;;;16.67;4.63;;;;;;;14.24;nan;101789.06;4880652;29;20460;-89
2022/03/18 00:08:50;;;;;;;15.30;2.47;;;;;;;14.26;nan;101783.38;4881287;29;20453;-88
2022/03/18 00:11:18;;;;;;;4.80;2.47;;;;;;;14.23;nan;101775.53;4881176;29;20835;-89
2022/03/18 00:13:46;;;;;;;12.00;2.27;;;;;;;14.19;nan;101769.56;4882561;29;20872;-88
2022/03/18 00:16:14;;;;;;;7.20;2.80;;;;;;;14.25;nan;101779.78;4885163;29;20461;-88
2022/03/18 00:18:42;;;;;;;8.93;3.67;;;;;;;14.24;nan;101778.06;4884315;29;20457;-88
2022/03/18 00:21:10;;;;;;;11.33;2.80;;;;;;;14.22;nan;101776.56;4901328;29;20457;-88
2022/03/18 00:23:38;;;;;;;6.67;2.40;;;;;;;14.21;nan;101778.47;4869542;29;20452;-89
2022/03/18 00:26:08;;;;;;;6.33;1.97;;;;;;;14.17;nan;101774.41;4885110;29;20979;-89
2022/03/18 00:28:39;;;;;;;3.93;1.40;;;;;;;14.16;nan;101770.78;4881558;29;20462;-89
2022/03/18 00:31:08;;;;;;;7.97;2.20;;;;;;;14.18;nan;101767.84;4866083;29;20489;-89
2022/03/18 00:33:36;;;;;;;4.93;1.93;;;;;;;14.17;nan;101768.91;4881350;29;20869;-88
2022/03/18 00:36:04;;;;;;;10.37;2.20;;;;;;;14.18;nan;101768.72;4884335;29;20462;-88
2022/03/18 00:38:32;;;;;;;5.37;1.60;;;;;;;14.21;nan;101767.47;4865615;29;20985;-88
2022/03/18 00:41:01;;;;;;;7.47;1.73;;;;;;;14.23;nan;101768.13;4880872;29;20458;-88
2022/03/18 00:43:29;;;;;;;4.87;2.17;;;;;;;14.27;nan;101774.06;4881629;29;20442;-88
2022/03/18 00:45:57;;;;;;;6.40;1.60;;;;;;;14.23;nan;101759.88;4865892;29;20455;-88
2022/03/18 00:53:57;;;;;;;7.17;1.67;;;;;;;14.33;nan;101765.91;4899912;29;20492;-88
2022/03/18 00:56:25;;;;;;;6.10;1.40;;;;;;;14.36;nan;101762.78;4868895;29;20828;-88
2022/03/18 00:58:55;;;;;;;4.83;1.53;;;;;;;14.34;nan;101762.13;4900715;29;20441;-89
2022/03/18 01:01:26;;;;;;;6.00;1.43;;;;;;;14.38;nan;101766.19;4884083;29;20457;-88
2022/03/18 01:03:55;;;;;;;2.80;1.83;;;;;;;14.37;nan;101763.63;4869516;29;20524;-88
2022/03/18 01:06:23;;;;;;;7.27;1.30;;;;;;;14.36;nan;101754.53;4900378;29;20944;-88
2022/03/18 01:08:51;;;;;;;3.53;1.43;;;;;;;14.39;nan;101770.66;4886543;29;20466;-90
2022/03/18 01:11:19;;;;;;;5.97;2.40;;;;;;;14.31;nan;101754.25;4861557;29;20461;-88
2022/03/18 01:13:47;;;;;;;2.47;1.13;;;;;;;14.37;nan;101761.75;4884050;29;20469;-89
2022/03/18 01:16:15;;;;;;;3.60;1.87;;;;;;;14.34;nan;101756.63;4868399;29;20449;-88
2022/03/18 01:18:44;;;;;;;3.03;1.20;;;;;;;14.33;nan;101760.41;4813059;29;20455;-88
2022/03/18 01:21:12;;;;;;;4.70;1.50;;;;;;;14.28;nan;101754.63;4842647;29;20473;-88
2022/03/18 01:23:39;;;;;;;5.53;1.70;;;;;;;14.22;nan;101749.94;4812828;29;20448;-88
2022/03/18 01:26:07;;;;;;;4.23;1.60;;;;;;;14.17;nan;101758.75;4812711;29;20460;-88
2022/03/18 01:28:38;;;;;;;6.40;1.80;;;;;;;14.08;nan;101762.63;4828081;29;20515;-88
2022/03/18 01:31:06;;;;;;;4.27;1.70;;;;;;;14.00;nan;101757.28;4812505;29;20484;-88
2022/03/18 01:33:35;;;;;;;11.93;1.83;;;;;;;13.91;nan;101754.78;4812057;29;20628;-89
2022/03/18 01:36:04;;;;;;;4.77;1.97;;;;;;;13.81;nan;101755.97;4836456;29;20450;-88
2022/03/18 01:38:32;;;;;;;11.30;1.80;;;;;;;13.76;nan;101758.41;4884050;29;20457;-89
2022/03/18 01:41:00;;;;;;;3.53;1.37;;;;;;;13.72;nan;101756.22;4868538;29;20458;-90
2022/03/18 01:43:28;;;;;;;11.23;2.10;;;;;;;13.57;nan;101737.00;4883569;29;20456;-89
2022/03/18 01:45:55;;;;;;;10.93;2.60;;;;;;;13.57;nan;101753.50;4873541;29;20936;-88
2022/03/18 01:48:23;;;;;;;8.50;1.87;;;;;;;13.55;nan;101751.97;4879314;29;20438;-89
2022/03/18 01:50:51;;;;;;;6.13;1.97;;;;;;;13.44;nan;101754.16;4898429;29;20485;-89
2022/03/18 01:53:19;;;;;;;5.80;1.87;;;;;;;13.49;nan;101762.66;4881681;29;20505;-89
2022/03/18 01:55:48;;;;;;;6.70;1.77;;;;;;;13.41;nan;101765.50;4864655;29;20483;-89
2022/03/18 01:58:16;;;;;;;4.87;1.60;;;;;;;13.34;nan;101763.69;4898489;29;20461;-89
2022/03/18 02:00:44;;;;;;;11.93;1.87;;;;;;;13.31;nan;101764.06;4882860;29;21036;-89
2022/03/18 02:03:13;;;;;;;5.30;1.70;;;;;;;13.28;nan;101769.91;4883079;29;20818;-90
2022/03/18 02:05:43;;;;;;;5.70;1.33;;;;;;;13.24;nan;101765.84;4898293;29;21078;-90
2022/03/18 02:08:12;;;;;;;3.07;1.27;;;;;;;13.19;nan;101766.41;4879509;29;20447;-89
2022/03/18 02:10:39;;;;;;;2.43;1.10;;;;;;;13.14;nan;101766.06;4882828;29;20449;-89
2022/03/18 02:13:07;;;;;;;4.87;1.87;;;;;;;13.11;nan;101763.69;4882066;29;20462;-88
2022/03/18 02:15:35;;;;;;;3.20;1.37;;;;;;;13.09;nan;101761.13;4882488;29;20529;-88
2022/03/18 02:18:05;;;;;;;2.23;1.20;;;;;;;13.03;nan;101761.91;4864608;29;20522;-88
2022/03/18 02:20:34;;;;;;;6.53;1.30;;;;;;;12.98;nan;101753.34;4898938;29;20800;-89
2022/03/18 02:23:02;;;;;;;6.70;1.30;;;;;;;12.98;nan;101758.84;4863746;29;20446;-89
2022/03/18 02:25:30;;;;;;;4.30;1.07;;;;;;;12.97;nan;101757.13;4882408;29;20929;-89
2022/03/18 02:28:03;;;;;;;3.43;1.30;;;;;;;12.93;nan;101755.78;4881224;29;20449;-89
2022/03/18 02:30:34;;;;;;;3.23;1.50;;;;;;;12.88;nan;101752.78;4897676;29;20466;-89
2022/03/18 02:33:02;;;;;;;7.63;1.47;;;;;;;12.84;nan;101745.94;4879890;29;20447;-88
2022/03/18 02:35:30;;;;;;;4.03;1.73;;;;;;;12.83;nan;101746.13;4881536;29;20478;-89
2022/03/18 02:37:59;;;;;;;11.00;1.57;;;;;;;12.80;nan;101750.94;4882308;29;20446;-88
2022/03/18 02:40:28;;;;;;;6.00;1.60;;;;;;;12.78;nan;101741.19;4897731;29;20465;-89
2022/03/18 02:42:58;;;;;;;6.03;1.80;;;;;;;12.75;nan;101736.06;4897944;29;20442;-88
2022/03/18 02:45:26;;;;;;;6.80;0.90;;;;;;;12.69;nan;101731.31;4897965;29;20458;-88
2022/03/18 02:47:54;;;;;;;5.20;2.00;;;;;;;12.69;nan;101734.06;4876223;29;20454;-89
2022/03/18 02:50:22;;;;;;;3.83;1.77;;;;;;;12.66;nan;101727.06;4905750;29;20446;-89
2022/03/18 02:52:50;;;;;;;6.57;1.80;;;;;;;12.66;nan;101717.97;4849228;29;20461;-89
2022/03/18 02:55:18;;;;;;;6.40;1.30;;;;;;;12.64;nan;101720.91;4848658;29;20508;-89
2022/03/18 02:57:46;;;;;;;3.07;1.13;;;;;;;12.59;nan;101715.09;4864019;29;20459;-89
2022/03/18 03:00:16;;;;;;;4.87;1.60;;;;;;;12.61;nan;101717.66;4892430;29;20952;-90
2022/03/18 03:02:45;;;;;;;3.27;1.30;;;;;;;12.56;nan;101717.34;4867844;29;20461;-89
2022/03/18 03:08:02;;;;;;;8.40;1.67;;;;;;;12.48;nan;101717.44;4884268;29;20822;-87
2022/03/18 03:10:32;;;;;;;2.73;1.00;;;;;;;12.44;nan;101705.97;4895700;29;20809;-90
2022/03/18 03:13:01;;;;;;;2.03;1.10;;;;;;;12.44;nan;101712.31;4881975;29;20460;-89
2022/03/18 03:15:29;;;;;;;4.10;1.40;;;;;;;12.40;nan;101713.69;4882107;29;20996;-88
2022/03/18 03:17:57;;;;;;;5.87;1.60;;;;;;;12.39;nan;101708.41;4882563;29;20454;-89
2022/03/18 03:20:25;;;;;;;7.27;1.20;;;;;;;12.38;nan;101706.69;4835832;29;20443;-88
2022/03/18 03:22:53;;;;;;;5.90;0.80;;;;;;;12.34;nan;101700.72;4877735;29;20459;-89
2022/03/18 03:25:21;;;;;;;3.30;1.40;;;;;;;12.34;nan;101705.34;4845822;29;20455;-88
2022/03/18 03:27:52;;;;;;;4.37;1.43;;;;;;;12.32;nan;101702.78;4847732;29;20472;-88
2022/03/18 03:30:21;;;;;;;5.10;1.70;;;;;;;12.27;nan;101697.00;4847203;29;20486;-88
2022/03/18 03:32:49;;;;;;;6.37;1.50;;;;;;;12.22;nan;101690.34;4846832;29;20458;-88
2022/03/18 03:35:17;;;;;;;2.93;1.03;;;;;;;12.23;nan;101692.91;4847143;29;20504;-88
2022/03/18 03:37:45;;;;;;;2.00;1.07;;;;;;;12.21;nan;101689.50;4850800;29;20446;-88
2022/03/18 03:40:13;;;;;;;2.83;1.00;;;;;;;12.24;nan;101683.66;4884503;29;20457;-88
2022/03/18 03:42:42;;;;;;;3.50;1.23;;;;;;;12.22;nan;101679.38;4880907;29;20500;-88
2022/03/18 03:45:10;;;;;;;3.07;1.20;;;;;;;12.20;nan;101676.84;4896890;29;20473;-89
2022/03/18 03:47:39;;;;;;;3.87;1.40;;;;;;;12.21;nan;101689.50;4881830;29;20454;-89
2022/03/18 03:50:07;;;;;;;2.67;1.10;;;;;;;12.09;nan;101669.91;4896657;29;20450;-88
2022/03/18 03:52:35;;;;;;;6.20;2.20;;;;;;;12.12;nan;101685.13;4881564;29;20454;-88
2022/03/18 03:55:07;;;;;;;1.93;1.03;;;;;;;12.10;nan;101692.66;4882171;29;20495;-88
2022/03/18 03:57:35;;;;;;;4.00;1.30;;;;;;;12.01;nan;101672.66;4879571;29;20514;-90
2022/03/18 04:00:04;;;;;;;6.50;1.40;;;;;;;12.10;nan;101692.66;4870408;29;20455;-89
2022/03/18 04:02:31;;;;;;;3.90;1.10;;;;;;;12.11;nan;101683.41;4847895;29;20450;-88
2022/03/18 04:05:00;;;;;;;8.23;1.40;;;;;;;12.04;nan;101665.97;4863434;29;20454;-89
2022/03/18 04:07:28;;;;;;;3.60;1.57;;;;;;;12.14;nan;101683.03;4870592;29;20575;-88
2022/03/18 04:09:55;;;;;;;3.00;1.20;;;;;;;12.15;nan;101676.50;4886638;29;20469;-88
2022/03/18 04:12:23;;;;;;;5.10;1.13;;;;;;;12.18;nan;101687.13;4847907;29;20450;-88
2022/03/18 04:14:54;;;;;;;2.70;0.83;;;;;;;12.16;nan;101691.94;4853656;29;21005;-89
2022/03/18 04:17:22;;;;;;;4.67;1.40;;;;;;;12.17;nan;101684.56;4863151;29;20454;-88
2022/03/18 04:19:50;;;;;;;4.00;1.43;;;;;;;12.17;nan;101693.63;4891089;29;20465;-88
2022/03/18 04:22:18;;;;;;;2.53;1.10;;;;;;;12.15;nan;101701.19;4877462;29;20453;-88
2022/03/18 04:24:46;;;;;;;3.40;0.90;;;;;;;12.12;nan;101679.66;4881138;29;20936;-88
2022/03/18 04:27:14;;;;;;;3.03;1.10;;;;;;;12.10;nan;101687.19;4897141;29;20821;-88
2022/03/18 04:29:42;;;;;;;3.00;0.90;;;;;;;12.04;nan;101676.94;4897820;29;20453;-88
2022/03/18 04:32:11;;;;;;;1.63;1.03;;;;;;;12.06;nan;101681.22;4881339;29;20949;-88
2022/03/18 04:34:40;;;;;;;2.80;1.00;;;;;;;12.08;nan;101692.84;4881093;29;20458;-89
2022/03/18 04:37:08;;;;;;;4.80;1.20;;;;;;;12.05;nan;101686.88;4896131;29;20480;-88
2022/03/18 04:39:36;;;;;;;3.60;0.90;;;;;;;11.96;nan;101676.97;4892553;29;20465;-88
2022/03/18 04:42:04;;;;;;;1.40;0.90;;;;;;;12.00;nan;101690.16;4896868;29;20453;-88
2022/03/18 04:44:32;;;;;;;1.63;1.00;;;;;;;11.92;nan;101683.88;4881295;29;20453;-88
2022/03/18 04:46:59;;;;;;;2.40;1.20;;;;;;;11.89;nan;101689.69;4897070;29;20468;-88
2022/03/18 04:49:31;;;;;;;3.23;1.20;;;;;;;11.91;nan;101693.97;4877539;29;20459;-89
2022/03/18 04:51:59;;;;;;;3.80;1.70;;;;;;;11.86;nan;101681.84;4889591;29;20458;-89
2022/03/18 04:54:29;;;;;;;3.07;1.20;;;;;;;11.87;nan;101686.28;4880903;29;20458;-89
2022/03/18 04:57:15;;;;;;;1.50;0.97;;;;;;;11.82;nan;101681.34;4896339;29;20496;-89
2022/03/18 04:59:44;;;;;;;9.33;1.33;;;;;;;11.85;nan;101682.88;4897755;29;20504;-88
2022/03/18 05:02:14;;;;;;;2.80;1.00;;;;;;;11.70;nan;101669.91;4884666;29;20462;-88
2022/03/18 05:04:42;;;;;;;10.97;1.20;;;;;;;11.82;nan;101683.22;4900897;29;20468;-90
2022/03/18 05:07:13;;;;;;;3.40;1.50;;;;;;;11.78;nan;101688.19;4884812;29;20457;-89
2022/03/18 05:09:40;;;;;;;1.40;1.00;;;;;;;11.74;nan;101695.88;4898276;29;20468;-88
2022/03/18 05:12:11;;;;;;;2.17;0.93;;;;;;;11.68;nan;101698.50;4899577;29;20472;-89
2022/03/18 05:14:40;;;;;;;1.77;0.93;;;;;;;11.58;nan;101693.22;4898681;29;20454;-89
2022/03/18 05:17:08;;;;;;;3.10;1.10;;;;;;;11.56;nan;101697.16;4899663;29;20462;-88
2022/03/18 05:19:37;;;;;;;3.83;1.50;;;;;;;11.47;nan;101690.88;4884478;29;20445;-90
2022/03/18 05:22:06;;;;;;;5.33;1.83;;;;;;;11.46;nan;101696.53;4898064;29;20471;-89
2022/03/18 05:24:34;;;;;;;4.23;1.07;;;;;;;11.42;nan;101690.53;4874419;29;20521;-89
2022/03/18 05:27:03;;;;;;;5.23;1.10;;;;;;;11.40;nan;101695.34;4883721;29;20458;-89
2022/03/18 05:29:31;;;;;;;4.93;1.13;;;;;;;11.33;nan;101683.41;4868792;29;20468;-89
2022/03/18 05:32:00;;;;;;;6.30;1.20;;;;;;;11.35;nan;101698.59;4880243;29;20474;-89
2022/03/18 05:34:29;;;;;;;2.27;0.97;;;;;;;11.37;nan;101695.69;4889163;29;20457;-89
2022/03/18 05:36:57;;;;;;;4.43;0.80;;;;;;;11.35;nan;101692.31;4868775;29;20488;-89
2022/03/18 05:39:25;;;;;;;2.40;1.40;;;;;;;11.39;nan;101693.63;4868286;29;20461;-89
2022/03/18 05:41:52;;;;;;;6.50;3.40;;;;;;;11.39;nan;101693.63;4899534;29;20460;-89
2022/03/18 05:44:20;;;;;;;16.80;9.87;;;;;;;11.43;nan;101695.84;4884006;29;20493;-89
2022/03/18 05:46:48;;;;;;;10.90;5.40;;;;;;;11.41;nan;101691.56;4868461;29;20977;-90
2022/03/18 05:49:17;;;;;;;2.60;1.80;;;;;;;11.41;nan;101694.31;4883429;29;20468;-89
2022/03/18 05:51:46;;;;;;;2.63;1.77;;;;;;;11.41;nan;101692.44;4869094;29;20456;-89
2022/03/18 05:54:14;;;;;;;3.50;1.50;;;;;;;11.35;nan;101684.09;4899225;29;20450;-89
2022/03/18 05:56:54;;;;;;;2.67;1.60;;;;;;;11.38;nan;101691.91;4883066;29;20484;-89
2022/03/18 05:59:52;;;;;;;2.23;1.23;;;;;;;11.37;nan;101690.22;4866992;29;20446;-88
2022/03/18 06:02:20;;;;;;;6.37;1.93;;;;;;;11.31;nan;101685.47;4879859;29;20482;-89
2022/03/18 06:04:48;;;;;;;3.47;1.80;;;;;;;11.33;nan;101691.63;4879668;29;20490;-89
2022/03/18 06:07:16;;;;;;;5.73;3.00;;;;;;;11.31;nan;101685.47;4895519;29;20509;-89
2022/03/18 06:12:30;;;;;;;7.90;3.43;;;;;;;11.30;nan;101698.28;4898213;29;20438;-90
2022/03/18 06:14:58;;;;;;;3.10;2.10;;;;;;;11.28;nan;101699.50;4868063;29;20831;-89
2022/03/18 06:17:26;;;;;;;4.80;1.80;;;;;;;11.30;nan;101703.75;4898143;29;20457;-88
2022/03/18 06:19:54;;;;;;;10.00;3.67;;;;;;;11.36;nan;101711.25;4867964;29;20965;-89
2022/03/18 06:22:22;;;;;;;5.57;2.93;;;;;;;11.38;nan;101697.41;4883403;29;20445;-89
2022/03/18 06:24:50;;;;;;;5.23;1.80;;;;;;;11.46;nan;101705.59;4898675;29;20453;-90
2022/03/18 06:27:18;;;;;;;4.73;1.33;;;;;;;11.57;nan;101716.16;4882905;29;20509;-89
2022/03/18 06:29:45;;;;;;;5.50;1.40;;;;;;;11.69;nan;101713.91;4867304;29;20961;-88
2022/03/18 06:32:13;;;;;;;9.00;2.23;;;;;;;11.79;nan;101706.34;4867189;29;20454;-89
2022/03/18 06:34:41;;;;;;;3.57;1.03;;;;;;;11.89;nan;101708.88;4898977;29;20458;-88
2022/03/18 06:37:09;;;;;;;1.80;0.97;;;;;;;12.04;nan;101709.81;4882667;29;20859;-88
2022/03/18 06:39:36;;;;;;;4.43;1.20;;;;;;;12.17;nan;101721.03;4880863;29;20466;-88
2022/03/18 06:42:05;;;;;;;2.70;0.90;;;;;;;12.20;nan;101715.19;4899387;29;20524;-89
2022/03/18 06:44:34;;;;;;;3.47;1.07;;;;;;;12.25;nan;101696.34;4881091;29;20983;-88
2022/03/18 06:47:02;;;;;;;1.20;0.80;;;;;;;12.33;nan;101700.88;4897641;29;20486;-89
2022/03/18 06:49:30;;;;;;;2.40;0.80;;;;;;;12.47;nan;101715.72;4882618;29;20453;-89
2022/03/18 06:51:59;;;;;;;1.80;0.80;;;;;;;12.54;nan;101717.53;4879047;29;20451;-88
2022/03/18 06:54:27;;;;;;;5.23;1.23;;;;;;;12.59;nan;101727.97;4879823;29;20957;-89
2022/03/18 06:56:58;;;;;;;5.37;1.30;;;;;;;12.65;nan;101725.34;4860012;29;20481;-89
2022/03/18 06:59:26;;;;;;;2.50;1.10;;;;;;;12.60;nan;101704.97;4897551;29;20977;-88
2022/03/18 07:01:54;;;;;;;7.97;1.17;;;;;;;12.66;nan;101710.59;4882286;29;20453;-88
2022/03/18 07:04:22;;;;;;;4.97;1.17;;;;;;;12.73;nan;101722.53;4897016;29;20465;-89
2022/03/18 07:06:51;;;;;;;2.63;1.00;;;;;;;12.78;nan;101724.72;4896889;29;20471;-89
2022/03/18 07:09:19;;;;;;;2.33;1.10;;;;;;;12.81;nan;101724.34;4897378;29;20956;-89
2022/03/18 07:11:47;;;;;;;4.10;1.30;;;;;;;12.83;nan;101724.19;4880073;29;20484;-89
2022/03/18 07:14:15;;;;;;;3.03;0.70;;;;;;;12.85;nan;101731.19;4866608;29;20458;-89
2022/03/18 07:19:29;;;;;;;7.03;1.30;;;;;;;12.92;nan;101737.63;4897715;29;20449;-88
2022/03/18 07:21:57;;;;;;;3.90;1.67;;;;;;;12.97;nan;101751.66;4912685;29;20469;-88
2022/03/18 07:24:24;;;;;;;2.23;0.93;;;;;;;12.97;nan;101750.78;4896860;29;20457;-88
2022/03/18 07:26:52;;;;;;;3.97;1.30;;;;;;;12.99;nan;101755.06;4873990;29;20461;-89
2022/03/18 07:29:20;;;;;;;6.63;1.13;;;;;;;13.06;nan;101761.53;4897188;29;20453;-88
2022/03/18 07:31:55;;;;;;;4.80;1.30;;;;;;;13.06;nan;101766.16;4881514;29;20474;-88
2022/03/18 07:34:23;;;;;;;9.73;1.70;;;;;;;13.07;nan;101768.72;4897281;29;20449;-89
2022/03/18 07:36:51;;;;;;;2.30;1.37;;;;;;;13.06;nan;101757.94;4876662;29;21012;-88
2022/03/18 07:39:18;;;;;;;3.60;1.33;;;;;;;13.06;nan;101758.78;4882004;29;20441;-87
2022/03/18 07:41:49;;;;;;;7.67;1.50;;;;;;;13.13;nan;101756.97;4867445;29;20457;-88
2022/03/18 07:44:20;;;;;;;1.33;0.80;;;;;;;13.16;nan;101754.94;4865971;29;20882;-89
2022/03/18 07:46:49;;;;;;;3.20;1.63;;;;;;;13.22;nan;101759.69;4893997;29;20960;-88
2022/03/18 07:49:18;;;;;;;2.90;1.07;;;;;;;13.23;nan;101755.91;4879923;29;20458;-88
2022/03/18 07:51:47;;;;;;;17.30;1.60;;;;;;;13.26;nan;101756.41;4879433;29;20454;-87
2022/03/18 07:54:15;;;;;;;2.63;1.20;;;;;;;13.35;nan;101757.16;4879839;29;20952;-88
2022/03/18 07:56:43;;;;;;;8.50;1.43;;;;;;;13.38;nan;101759.53;4897890;29;21000;-89
2022/03/18 07:59:12;;;;;;;6.83;1.70;;;;;;;13.47;nan;101763.88;4896907;29;20811;-87
2022/03/18 08:01:40;;;;;;;5.97;2.17;;;;;;;13.49;nan;101768.16;4896917;29;20454;-87
2022/03/18 08:04:09;;;;;;;2.50;1.50;;;;;;;13.53;nan;101770.53;4897655;29;20464;-88
2022/03/18 08:06:41;;;;;;;8.20;2.40;;;;;;;13.59;nan;101767.88;4878119;29;20460;-88
2022/03/18 08:09:10;;;;;;;5.83;2.03;;;;;;;13.59;nan;101773.38;4896700;29;20878;-87
2022/03/18 08:11:38;;;;;;;3.60;1.60;;;;;;;13.62;nan;101777.66;4843174;29;20455;-88
2022/03/18 08:14:06;;;;;;;9.40;1.67;;;;;;;13.69;nan;101773.94;4843381;29;20849;-87
2022/03/18 08:16:35;;;;;;;6.03;1.80;;;;;;;13.72;nan;101773.56;4843297;29;20491;-86
2022/03/18 08:19:05;;;;;;;4.80;1.90;;;;;;;13.83;nan;101786.00;4843317;29;20492;-86
2022/03/18 08:21:39;;;;;;;6.53;2.33;;;;;;;13.92;nan;101790.34;4828368;29;20455;-86
2022/03/18 08:24:09;;;;;;;9.33;1.43;;;;;;;13.96;nan;101771.56;4858714;29;21039;-86
2022/03/18 08:26:37;;;;;;;11.17;2.00;;;;;;;14.07;nan;101776.56;4842870;29;20452;-85
2022/03/18 08:29:07;;;;;;;4.00;1.63;;;;;;;14.06;nan;101769.38;4850406;29;20466;-86
2022/03/18 08:31:35;;;;;;;2.80;1.40;;;;;;;14.18;nan;101784.34;4880622;29;20523;-86
2022/03/18 08:34:03;;;;;;;2.77;1.10;;;;;;;14.32;nan;101791.72;4895023;29;20465;-86
2022/03/18 08:36:31;;;;;;;2.40;1.10;;;;;;;14.36;nan;101789.44;4894769;29;20511;-87
2022/03/18 08:39:00;;;;;;;5.60;1.07;;;;;;;14.44;nan;101801.19;4908213;29;20979;-86
2022/03/18 08:41:41;;;;;;;5.40;1.10;;;;;;;14.47;nan;101795.31;4882914;29;20839;-87
2022/03/18 08:44:09;;;;;;;3.23;1.00;;;;;;;14.50;nan;101805.06;4901094;29;20497;-87
2022/03/18 08:46:42;;;;;;;5.00;1.40;;;;;;;14.57;nan;101806.00;4901067;29;20453;-86
2022/03/18 08:49:12;;;;;;;2.97;0.97;;;;;;;14.59;nan;101809.44;4899696;29;20457;-86
2022/03/18 08:51:40;;;;;;;8.63;1.47;;;;;;;14.58;nan;101795.88;4899903;29;20530;-86
2022/03/18 08:54:08;;;;;;;2.40;1.30;;;;;;;14.68;nan;101810.16;4883788;29;20453;-87
2022/03/18 08:56:36;;;;;;;2.37;1.20;;;;;;;14.72;nan;101817.81;4900891;29;20524;-87
2022/03/18 08:59:06;;;;;;;2.40;1.30;;;;;;;14.71;nan;101807.00;4915419;29;20475;-86
2022/03/18 09:01:35;;;;;;;2.70;1.00;;;;;;;14.75;nan;101813.84;4880675;29;20441;-88
2022/03/18 09:04:03;;;;;;;6.10;1.83;;;;;;;14.71;nan;101813.38;4878125;29;20469;-90
2022/03/18 09:06:31;;;;;;;2.90;1.40;;;;;;;14.80;nan;101822.38;4899942;29;20449;-91
2022/03/18 09:09:03;;;;;;;2.70;1.37;;;;;;;14.82;nan;101823.00;4881690;29;20450;-90
2022/03/18 09:11:31;;;;;;;5.37;1.60;;;;;;;14.84;nan;101826.41;4852477;29;20836;-90
2022/03/18 09:13:59;;;;;;;6.80;2.30;;;;;;;14.85;nan;101817.97;4853288;29;20960;-90
2022/03/18 09:16:26;;;;;;;5.30;1.53;;;;;;;14.91;nan;101832.84;4869056;29;20493;-88
2022/03/18 09:19:01;;;;;;;5.20;1.70;;;;;;;14.90;nan;101828.38;4884803;29;20480;-86
2022/03/18 09:21:28;;;;;;;5.13;1.97;;;;;;;14.96;nan;101833.13;4899492;29;20449;-87
2022/03/18 09:23:58;;;;;;;3.43;1.60;;;;;;;14.92;nan;101831.81;4883936;29;20441;-87
2022/03/18 09:26:26;;;;;;;3.73;1.43;;;;;;;14.94;nan;101837.13;4882485;29;20462;-89
2022/03/18 09:28:54;;;;;;;4.60;1.60;;;;;;;14.89;nan;101828.59;4868900;29;20465;-89
2022/03/18 09:31:24;;;;;;;4.37;1.83;;;;;;;14.87;nan;101834.28;4883590;29;20492;-87
2022/03/18 09:33:53;;;;;;;4.60;1.40;;;;;;;14.93;nan;101844.53;4898934;29;20458;-90
2022/03/18 09:36:21;;;;;;;11.83;3.20;;;;;;;14.99;nan;101845.66;4851663;29;20482;-90
2022/03/18 09:38:49;;;;;;;2.90;1.53;;;;;;;14.94;nan;101839.88;4899419;29;20450;-90
2022/03/18 09:41:16;;;;;;;4.70;1.53;;;;;;;15.06;nan;101854.81;4868403;29;20963;-91
2022/03/18 09:43:54;;;;;;;8.47;1.90;;;;;;;15.05;nan;101856.72;4883925;29;20452;-89
2022/03/18 09:46:21;;;;;;;5.67;1.50;;;;;;;15.07;nan;101857.38;4914417;29;20456;-91
2022/03/18 09:49:02;;;;;;;11.13;2.70;;;;;;;15.04;nan;101843.97;4875001;29;20453;-90
2022/03/18 09:51:30;;;;;;;2.73;1.90;;;;;;;15.10;nan;101856.97;4883638;29;20453;-91
2022/03/18 09:54:16;;;;;;;4.47;1.63;;;;;;;15.13;nan;101851.09;4873133;29;20449;-90
2022/03/18 09:56:45;;;;;;;2.17;1.40;;;;;;;15.19;nan;101860.47;4868290;29;20480;-90
2022/03/18 09:59:13;;;;;;;5.23;2.00;;;;;;;15.21;nan;101859.19;4899618;29;20450;-90
2022/03/18 10:01:43;;;;;;;12.83;4.10;;;;;;;15.37;nan;101846.22;4880424;29;20461;-88
2022/03/18 10:04:14;;;;;;;10.33;2.00;;;;;;;15.56;nan;101864.88;4867036;29;20521;-88
2022/03/18 10:06:42;;;;;;;4.60;2.37;;;;;;;15.63;nan;101851.13;4899915;29;20821;-87
2022/03/18 10:09:12;;;;;;;10.83;1.97;;;;;;;15.74;nan;101856.94;4875799;29;20575;-88
2022/03/18 10:11:43;;;;;;;6.10;1.97;;;;;;;15.88;nan;101867.00;4867130;29;20969;-87
2022/03/18 10:14:16;;;;;;;7.20;2.47;;;;;;;15.92;nan;101861.09;4883799;29;21012;-88
2022/03/18 10:16:44;;;;;;;11.70;2.77;;;;;;;15.97;nan;101858.59;4882931;29;20484;-88
2022/03/18 10:19:45;;;;;;;7.60;1.70;;;;;;;16.09;nan;101866.09;4897500;29;20965;-88
2022/03/18 10:22:14;;;;;;;5.67;2.10;;;;;;;16.24;nan;101863.19;4883091;29;20473;-88
2022/03/18 10:24:45;;;;;;;5.47;2.17;;;;;;;16.37;nan;101857.75;4882404;29;20452;-88
2022/03/18 10:27:23;;;;;;;12.00;4.37;;;;;;;16.57;nan;101857.84;4898966;29;20457;-88
2022/03/18 10:29:55;;;;;;;11.30;2.27;;;;;;;16.77;nan;101855.19;4888732;29;20829;-89
2022/03/18 10:32:27;;;;;;;5.00;1.53;;;;;;;16.85;nan;101853.09;4891317;29;20462;-88
2022/03/18 10:37:46;;;;;;;5.20;1.57;;;;;;;16.98;nan;101852.25;4875693;29;20477;-89
2022/03/18 10:40:14;;;;;;;6.67;1.60;;;;;;;17.06;nan;101854.00;4882953;29;20450;-88
2022/03/18 10:42:42;;;;;;;4.30;2.23;;;;;;;17.14;nan;101849.09;4866330;29;20453;-88
2022/03/18 10:45:10;;;;;;;3.27;1.43;;;;;;;17.24;nan;101855.09;4852326;29;20471;-87
2022/03/18 10:47:41;;;;;;;6.70;1.50;;;;;;;17.44;nan;101852.34;4875225;29;20988;-89
2022/03/18 10:50:17;;;;;;;6.97;1.83;;;;;;;17.57;nan;101851.47;4879131;29;20469;-88
2022/03/18 10:52:48;;;;;;;11.03;1.60;;;;;;;17.70;nan;101851.53;4886525;29;20453;-88
2022/03/18 10:55:23;;;;;;;7.10;2.80;;;;;;;17.79;nan;101849.38;4895470;29;20471;-88
2022/03/18 10:58:15;;;;;;;4.10;1.97;;;;;;;17.94;nan;101850.00;4864988;29;20489;-89
2022/03/18 11:00:50;;;;;;;45.73;12.43;;;;;;;18.12;nan;101849.31;4895817;29;20804;-89
2022/03/18 11:03:19;;;;;;;29.77;9.60;;;;;;;18.29;nan;101850.53;4882151;29;21007;-89
2022/03/18 11:05:51;;;;;;;19.07;4.00;;;;;;;18.39;nan;101845.41;4880753;29;20461;-89
2022/03/18 11:08:23;;;;;;;16.53;6.50;;;;;;;18.55;nan;101839.38;4880934;29;20457;-89
2022/03/18 11:11:15;;;;;;;10.23;3.87;;;;;;;18.75;nan;101838.47;4878698;29;20462;-88
2022/03/18 11:13:51;;;;;;;6.90;1.77;;;;;;;19.06;nan;101835.72;4882022;29;20465;-89
2022/03/18 11:16:25;;;;;;;9.80;2.43;;;;;;;19.18;nan;101833.94;4889546;29;20821;-89
2022/03/18 11:18:54;;;;;;;6.13;2.00;;;;;;;19.33;nan;101831.69;4877227;29;20954;-90
2022/03/18 11:21:25;;;;;;;3.40;1.50;;;;;;;19.46;nan;101822.41;4882131;29;20445;-89
2022/03/18 11:23:55;;;;;;;3.80;1.33;;;;;;;19.59;nan;101821.50;4866388;29;20458;-90
2022/03/18 11:26:23;;;;;;;6.17;1.40;;;;;;;19.67;nan;101818.41;4866477;29;20454;-89
2022/03/18 11:29:19;;;;;;;5.07;1.70;;;;;;;19.74;nan;101821.13;4864584;29;20465;-88
2022/03/18 11:32:16;;;;;;;9.70;1.77;;;;;;;19.84;nan;101827.84;4896982;29;20473;-89
2022/03/18 11:35:01;;;;;;;3.97;1.40;;;;;;;19.86;nan;101809.03;4866569;29;20965;-89
2022/03/18 11:37:29;;;;;;;5.40;1.67;;;;;;;19.92;nan;101804.50;4894298;29;20862;-89
2022/03/18 11:40:27;;;;;;;6.20;1.70;;;;;;;20.14;nan;101816.00;4896544;29;20469;-89
2022/03/18 11:42:56;;;;;;;6.20;1.73;;;;;;;20.27;nan;101804.75;4878931;29;20466;-88
2022/03/18 11:45:36;;;;;;;6.13;1.93;;;;;;;20.37;nan;101810.66;4880329;29;20454;-88
2022/03/18 11:48:34;;;;;;;4.47;1.20;;;;;;;20.43;nan;101803.28;4885362;29;20456;-88
2022/03/18 11:51:21;;;;;;;3.03;1.30;;;;;;;20.44;nan;101805.84;4856517;29;20965;-89
2022/03/18 11:53:51;;;;;;;13.83;3.43;;;;;;;20.56;nan;101798.44;4895166;29;20833;-90
2022/03/18 11:56:22;;;;;;;8.87;3.00;;;;;;;20.69;nan;101792.69;4871366;29;20980;-89
2022/03/18 11:58:50;;;;;;;9.87;2.43;;;;;;;20.96;nan;101792.31;4880325;29;20476;-89
2022/03/18 12:01:43;;;;;;;13.00;2.87;;;;;;;21.17;nan;101797.28;4862942;29;20454;-89
2022/03/18 12:04:13;;;;;;;6.90;2.93;;;;;;;21.27;nan;101800.38;4886237;29;20821;-89
2022/03/18 12:07:09;;;;;;;9.77;4.10;;;;;;;21.42;nan;101802.69;4877442;29;20458;-89
2022/03/18 12:10:02;;;;;;;6.60;2.60;;;;;;;21.50;nan;101799.56;4894399;29;20466;-89
2022/03/18 12:12:46;;;;;;;12.50;3.23;;;;;;;21.60;nan;101801.72;4880824;29;20457;-89